createdAt,value
2019-04-20T00:01:20.006Z,49.94
2019-04-20T00:03:46.777Z,50.24
2019-04-20T00:06:19.495Z,50.29
2019-04-20T00:08:58.854Z,50.25
2019-04-20T00:11:28.332Z,50.37
2019-04-20T00:14:03.834Z,50.59
2019-04-20T00:16:31.627Z,50.43
2019-04-20T00:19:05.445Z,50.30
2019-04-20T00:21:58.622Z,50.24
2019-04-20T00:24:37.573Z,50.17
2019-04-20T00:27:32.934Z,49.99
2019-04-20T00:29:58.695Z,50.28
2019-04-20T00:32:30.013Z,50.00
2019-04-20T00:34:50.661Z,50.49
2019-04-20T00:37:23.352Z,50.65
2019-04-20T00:39:55.994Z,49.58
2019-04-20T00:42:33.976Z,49.96
2019-04-20T00:45:09.852Z,49.19
2019-04-20T00:47:45.492Z,50.32
2019-04-20T00:50:25.711Z,49.63
2019-04-20T00:52:55.767Z,50.29
2019-04-20T00:55:14.920Z,50.55
2019-04-20T00:57:54.874Z,50.98
2019-04-20T01:00:37.206Z,51.20
2019-04-20T01:03:09.847Z,51.60
2019-04-20T01:06:02.244Z,51.36
2019-04-20T01:08:21.364Z,51.37
2019-04-20T01:10:56.471Z,51.29
2019-04-20T01:13:28.098Z,51.05
2019-04-20T01:16:07.722Z,51.13
2019-04-20T01:18:32.604Z,50.85
2019-04-20T01:21:06.808Z,50.89
2019-04-20T01:23:43.779Z,50.43
2019-04-20T01:26:14.482Z,51.03
2019-04-20T01:28:54.176Z,50.59
2019-04-20T01:31:27.192Z,50.35
2019-04-20T01:33:58.897Z,50.72
2019-04-20T01:36:43.027Z,50.43
2019-04-20T01:39:09.402Z,50.78
2019-04-20T01:41:30.731Z,49.87
2019-04-20T01:44:02.708Z,50.19
2019-04-20T01:46:39.152Z,50.22
2019-04-20T01:49:14.797Z,49.53
2019-04-20T01:51:52.537Z,49.80
2019-04-20T01:54:33.927Z,48.63
2019-04-20T01:57:04.699Z,48.65
2019-04-20T01:59:53.386Z,48.15
2019-04-20T02:02:24.905Z,48.56
2019-04-20T02:05:08.107Z,48.46
2019-04-20T02:07:38.974Z,47.86
2019-04-20T02:10:11.364Z,48.37
2019-04-20T02:12:42.533Z,47.51
2019-04-20T02:15:23.140Z,47.34
2019-04-20T02:18:03.669Z,47.31
2019-04-20T02:20:39.718Z,46.85
2019-04-20T02:23:10.700Z,46.80
2019-04-20T02:25:29.063Z,47.17
2019-04-20T02:28:18.950Z,47.34
2019-04-20T02:31:23.119Z,46.93
2019-04-20T02:33:43.280Z,47.43
2019-04-20T02:41:50.535Z,46.09
2019-04-20T02:46:51.039Z,46.43
2019-04-20T02:51:46.696Z,46.35
2019-04-20T02:54:18.513Z,46.88
2019-04-20T02:57:00.659Z,46.05
2019-04-20T03:01:45.666Z,46.68
2019-04-20T03:04:04.870Z,46.39
2019-04-20T03:06:53.537Z,45.77
2019-04-20T03:09:31.507Z,46.88
2019-04-20T03:12:06.163Z,46.16
2019-04-20T03:14:31.918Z,46.14
2019-04-20T03:17:18.201Z,45.91
2019-04-20T03:19:38.665Z,45.80
2019-04-20T03:22:23.631Z,45.70
2019-04-20T03:24:53.928Z,46.13
2019-04-20T03:27:33.061Z,46.11
2019-04-20T03:31:15.719Z,46.23
2019-04-20T03:33:30.929Z,45.72
2019-04-20T03:35:43.601Z,45.44
2019-04-20T03:38:10.680Z,45.25
2019-04-20T03:40:37.573Z,44.67
2019-04-20T03:42:54.993Z,43.98
2019-04-20T03:45:31.488Z,42.96
2019-04-20T03:48:09.069Z,43.91
2019-04-20T03:50:50.436Z,44.92
2019-04-20T03:53:31.301Z,43.08
2019-04-20T03:56:29.779Z,43.85
2019-04-20T03:59:17.713Z,43.79
2019-04-20T04:02:25.464Z,43.54
2019-04-20T04:05:01.790Z,43.18
2019-04-20T04:07:21.859Z,43.41
2019-04-20T04:10:02.470Z,44.33
2019-04-20T04:13:11.770Z,44.06
2019-04-20T04:15:50.056Z,43.76
2019-04-20T04:18:27.761Z,43.97
2019-04-20T04:21:03.050Z,44.13
2019-04-20T04:23:47.119Z,44.42
2019-04-20T04:26:17.313Z,44.52
2019-04-20T04:28:49.042Z,44.30
2019-04-20T04:31:27.847Z,44.45
2019-04-20T04:33:59.332Z,44.24
2019-04-20T04:36:25.680Z,44.00
2019-04-20T04:39:19.252Z,45.56
2019-04-20T04:41:36.720Z,45.88
2019-04-20T04:44:09.678Z,45.59
2019-04-20T04:46:26.798Z,46.13
2019-04-20T04:49:08.840Z,45.97
2019-04-20T04:51:42.606Z,45.02
2019-04-20T04:54:16.345Z,45.30
2019-04-20T04:56:39.748Z,44.65
2019-04-20T04:59:10.968Z,43.97
2019-04-20T05:01:47.807Z,44.20
2019-04-20T05:04:57.888Z,43.21
2019-04-20T05:07:03.851Z,43.97
2019-04-20T05:09:23.824Z,44.34
2019-04-20T05:11:59.972Z,44.17
2019-04-20T05:14:41.859Z,44.10
2019-04-20T05:17:15.282Z,43.70
2019-04-20T05:19:52.825Z,42.72
2019-04-20T05:22:34.755Z,42.60
2019-04-20T05:25:12.957Z,42.79
2019-04-20T05:27:51.302Z,42.42
2019-04-20T05:30:08.223Z,42.38
2019-04-20T05:32:52.432Z,40.37
2019-04-20T05:35:31.082Z,41.04
2019-04-20T05:38:12.035Z,40.71
2019-04-20T05:40:38.976Z,39.73
2019-04-20T05:43:44.275Z,39.86
2019-04-20T05:46:23.540Z,38.50
2019-04-20T05:48:57.934Z,36.95
2019-04-20T05:51:29.546Z,37.47
2019-04-20T05:54:02.558Z,37.22
2019-04-20T05:56:35.813Z,37.23
2019-04-20T05:59:07.555Z,37.84
2019-04-20T06:01:47.582Z,36.61
2019-04-20T06:04:10.113Z,36.60
2019-04-20T06:06:49.597Z,35.45
2019-04-20T06:09:25.152Z,36.40
2019-04-20T06:12:07.694Z,34.32
2019-04-20T06:14:44.232Z,35.15
2019-04-20T06:17:26.465Z,34.65
2019-04-20T06:20:06.455Z,35.06
2019-04-20T06:22:40.760Z,32.45
2019-04-20T06:25:31.843Z,32.49
2019-04-20T06:27:52.819Z,32.44
2019-04-20T06:30:21.677Z,33.21
2019-04-20T06:34:07.570Z,30.69
2019-04-20T06:36:29.462Z,32.16
2019-04-20T06:39:02.026Z,31.03
2019-04-20T06:41:45.286Z,30.32
2019-04-20T06:44:08.644Z,30.61
2019-04-20T06:46:50.541Z,30.30
2019-04-20T06:49:18.455Z,30.15
2019-04-20T06:52:15.355Z,31.00
2019-04-20T06:55:03.349Z,31.97
2019-04-20T06:57:54.172Z,31.02
2019-04-20T07:00:15.460Z,30.39
2019-04-20T07:02:57.829Z,28.70
2019-04-20T07:08:07.021Z,29.66
2019-04-20T07:10:31.333Z,29.64
2019-04-20T07:13:01.461Z,30.05
2019-04-20T07:15:41.543Z,30.34
2019-04-20T07:18:26.558Z,28.79
2019-04-20T07:21:00.509Z,32.08
2019-04-20T07:23:37.162Z,29.48
2019-04-20T07:26:13.838Z,32.17
2019-04-20T07:28:45.073Z,28.20
2019-04-20T07:31:14.141Z,29.62
2019-04-20T07:33:55.150Z,31.34
2019-04-20T07:36:24.472Z,27.81
2019-04-20T07:39:05.573Z,29.26
2019-04-20T07:41:42.906Z,30.30
2019-04-20T07:44:10.583Z,28.90
2019-04-20T07:46:47.044Z,28.80
2019-04-20T07:49:12.778Z,29.10
2019-04-20T07:51:29.670Z,28.73
2019-04-20T07:54:24.576Z,26.73
2019-04-20T07:56:47.675Z,27.62
2019-04-20T07:59:13.963Z,27.03
2019-04-20T08:02:15.745Z,27.07
2019-04-20T08:04:52.386Z,27.06
2019-04-20T08:07:11.156Z,27.66
2019-04-20T08:09:49.792Z,26.64
2019-04-20T08:12:51.729Z,26.75
2019-04-20T08:15:32.244Z,26.59
2019-04-20T08:18:07.640Z,28.48
2019-04-20T08:20:29.867Z,25.46
2019-04-20T08:23:12.334Z,26.77
2019-04-20T08:25:27.730Z,25.34
2019-04-20T08:28:13.541Z,26.47
2019-04-20T08:31:21.713Z,26.44
2019-04-20T08:34:15.595Z,27.88
2019-04-20T08:36:44.204Z,26.74
2019-04-20T08:39:24.130Z,27.75
2019-04-20T08:41:45.277Z,25.15
2019-04-20T08:44:39.668Z,26.05
2019-04-20T08:47:00.246Z,25.92
2019-04-20T08:49:29.544Z,24.15
2019-04-20T08:52:05.847Z,26.52
2019-04-20T08:54:26.058Z,25.85
2019-04-20T08:56:51.801Z,23.59
2019-04-20T08:59:18.818Z,24.15
2019-04-20T09:01:51.109Z,25.33
2019-04-20T09:04:36.041Z,23.62
2019-04-20T09:07:05.571Z,23.82
2019-04-20T09:09:49.130Z,24.61
2019-04-20T09:12:19.143Z,25.16
2019-04-20T09:14:38.447Z,23.88
2019-04-20T09:17:26.412Z,23.88
2019-04-20T09:19:59.935Z,22.62
2019-04-20T09:22:45.713Z,22.35
2019-04-20T09:28:11.575Z,21.96
2019-04-20T09:30:42.887Z,22.15
2019-04-20T09:33:43.426Z,22.18
2019-04-20T09:36:18.211Z,21.12
2019-04-20T09:39:08.610Z,20.83
2019-04-20T09:42:00.710Z,22.45
2019-04-20T09:44:30.372Z,21.98
2019-04-20T09:47:00.445Z,20.95
2019-04-20T09:49:42.487Z,21.85
2019-04-20T09:52:16.906Z,20.91
2019-04-20T09:54:57.176Z,19.10
2019-04-20T09:57:30.918Z,20.18
2019-04-20T10:00:04.276Z,19.91
2019-04-20T10:02:24.054Z,20.01
2019-04-20T10:04:51.471Z,21.44
2019-04-20T10:07:26.214Z,21.07
2019-04-20T10:09:57.781Z,20.68
2019-04-20T10:12:29.449Z,19.06
2019-04-20T10:15:04.154Z,18.00
2019-04-20T10:17:35.748Z,19.78
2019-04-20T10:20:11.576Z,20.68
2019-04-20T10:22:42.302Z,18.89
2019-04-20T10:25:15.150Z,20.75
2019-04-20T10:27:47.478Z,18.95
2019-04-20T10:30:20.678Z,19.80
2019-04-20T10:32:53.953Z,19.35
2019-04-20T10:35:25.541Z,19.77
2019-04-20T10:38:15.688Z,19.44
2019-04-20T10:40:59.778Z,21.71
2019-04-20T10:43:20.158Z,20.60
2019-04-20T10:45:52.907Z,20.96
2019-04-20T10:48:24.461Z,18.38
2019-04-20T10:50:56.907Z,19.11
2019-04-20T10:53:30.001Z,18.97
2019-04-20T10:56:01.555Z,19.32
2019-04-20T10:58:33.759Z,18.82
2019-04-20T11:01:07.362Z,17.21
2019-04-20T11:03:40.733Z,17.45
2019-04-20T11:06:12.211Z,18.44
2019-04-20T11:08:44.590Z,16.69
2019-04-20T11:11:23.829Z,16.61
2019-04-20T11:13:49.471Z,15.65
2019-04-20T11:16:22.050Z,17.81
2019-04-20T11:18:53.667Z,14.05
2019-04-20T11:21:26.239Z,15.47
2019-04-20T11:23:58.832Z,15.65
2019-04-20T11:26:31.760Z,16.21
2019-04-20T11:29:04.186Z,18.06
2019-04-20T11:31:41.631Z,16.58
2019-04-20T11:34:10.124Z,16.87
2019-04-20T11:36:41.639Z,16.60
2019-04-20T11:39:14.768Z,15.61
2019-04-20T11:41:47.407Z,15.96
2019-04-20T11:44:20.011Z,14.90
2019-04-20T11:46:52.549Z,15.25
2019-04-20T11:49:23.992Z,16.22
2019-04-20T11:51:55.583Z,16.67
2019-04-20T11:54:28.310Z,14.92
2019-04-20T11:56:59.775Z,17.13
2019-04-20T11:59:32.983Z,16.32
2019-04-20T12:02:27.962Z,15.51
2019-04-20T12:05:10.240Z,16.21
2019-04-20T12:07:49.097Z,14.48
2019-04-20T12:10:23.997Z,17.37
2019-04-20T12:12:55.698Z,14.21
2019-04-20T12:15:28.927Z,15.20
2019-04-20T12:18:01.961Z,15.77
2019-04-20T12:20:34.560Z,16.70
2019-04-20T12:23:06.543Z,14.07
2019-04-20T12:25:39.679Z,16.61
2019-04-20T12:28:11.686Z,16.92
2019-04-20T12:30:43.884Z,15.70
2019-04-20T12:33:15.621Z,15.84
2019-04-20T12:35:48.017Z,15.85
2019-04-20T12:38:19.519Z,15.81
2019-04-20T12:40:52.379Z,16.63
2019-04-20T12:43:25.423Z,19.71
2019-04-20T12:45:57.965Z,16.08
2019-04-20T12:48:29.723Z,14.92
2019-04-20T12:51:01.591Z,15.16
2019-04-20T12:53:33.066Z,16.20
2019-04-20T12:56:04.520Z,16.13
2019-04-20T12:58:36.624Z,16.11
2019-04-20T13:01:08.088Z,16.54
2019-04-20T13:03:39.724Z,16.54
2019-04-20T13:06:12.091Z,15.89
2019-04-20T13:08:51.402Z,17.16
2019-04-20T13:11:24.773Z,17.66
2019-04-20T13:15:16.375Z,16.21
2019-04-20T13:17:50.670Z,14.99
2019-04-20T13:20:21.657Z,15.01
2019-04-20T13:22:53.130Z,16.25
2019-04-20T13:25:26.305Z,14.77
2019-04-20T13:27:58.873Z,14.87
2019-04-20T13:30:30.462Z,16.97
2019-04-20T13:33:02.133Z,15.52
2019-04-20T13:35:34.324Z,14.05
2019-04-20T13:38:05.885Z,16.21
2019-04-20T13:40:37.761Z,15.17
2019-04-20T13:43:09.946Z,14.48
2019-04-20T13:45:42.706Z,15.03
2019-04-20T13:48:15.114Z,15.78
2019-04-20T13:50:46.696Z,14.53
2019-04-20T13:53:19.178Z,14.93
2019-04-20T13:55:51.912Z,15.41
2019-04-20T13:58:41.473Z,15.44
2019-04-20T14:01:21.178Z,15.88
2019-04-20T14:04:05.267Z,15.90
2019-04-20T14:06:37.318Z,15.83
2019-04-20T14:09:10.015Z,14.51
2019-04-20T14:11:43.322Z,14.87
2019-04-20T14:14:15.149Z,15.40
2019-04-20T14:16:47.519Z,15.43
2019-04-20T14:19:19.048Z,14.30
2019-04-20T14:21:50.711Z,14.18
2019-04-20T14:24:22.127Z,15.23
2019-04-20T14:26:54.813Z,15.43
2019-04-20T14:29:27.293Z,16.49
2019-04-20T14:32:01.550Z,14.44
2019-04-20T14:34:33.106Z,15.29
2019-04-20T14:37:04.815Z,15.92
2019-04-20T14:39:36.394Z,15.55
2019-04-20T14:42:07.888Z,15.13
2019-04-20T14:44:39.560Z,15.29
2019-04-20T14:47:11.887Z,16.00
2019-04-20T14:49:43.522Z,15.59
2019-04-20T14:52:15.764Z,14.41
2019-04-20T14:54:47.704Z,15.50
2019-04-20T14:57:19.299Z,15.87
2019-04-20T14:59:57.231Z,15.21
2019-04-20T15:02:30.562Z,15.69
2019-04-20T15:05:03.251Z,17.95
2019-04-20T15:07:36.323Z,18.45
2019-04-20T15:10:09.021Z,16.52
2019-04-20T15:12:49.115Z,17.49
2019-04-20T15:15:14.695Z,15.88
2019-04-20T15:17:51.370Z,15.94
2019-04-20T15:20:39.514Z,16.58
2019-04-20T15:23:21.599Z,17.80
2019-04-20T15:25:54.721Z,17.64
2019-04-20T15:28:26.274Z,17.07
2019-04-20T15:30:58.324Z,17.96
2019-04-20T15:33:30.814Z,17.39
2019-04-20T15:36:02.268Z,16.28
2019-04-20T15:38:33.545Z,18.58
2019-04-20T15:41:06.936Z,17.30
2019-04-20T15:43:39.162Z,16.30
2019-04-20T15:46:10.988Z,16.34
2019-04-20T15:48:42.354Z,17.59
2019-04-20T15:51:17.098Z,16.96
2019-04-20T15:53:49.531Z,18.92
2019-04-20T15:56:20.938Z,17.47
2019-04-20T15:58:52.828Z,18.10
2019-04-20T16:01:28.306Z,17.72
2019-04-20T16:04:21.657Z,18.67
2019-04-20T16:06:47.535Z,17.13
2019-04-20T16:09:19.948Z,17.51
2019-04-20T16:11:52.979Z,16.99
2019-04-20T16:14:25.685Z,18.17
2019-04-20T16:16:58.274Z,18.79
2019-04-20T16:19:41.776Z,18.87
2019-04-20T16:22:03.773Z,18.75
2019-04-20T16:24:38.510Z,18.62
2019-04-20T16:27:35.909Z,18.97
2019-04-20T16:30:09.661Z,19.63
2019-04-20T16:32:42.724Z,20.61
2019-04-20T16:35:14.424Z,20.01
2019-04-20T16:37:46.517Z,19.80
2019-04-20T16:40:18.092Z,19.43
2019-04-20T16:42:50.254Z,18.71
2019-04-20T16:45:21.645Z,20.18
2019-04-20T16:47:54.412Z,19.75
2019-04-20T16:50:26.906Z,19.60
2019-04-20T16:52:59.091Z,20.39
2019-04-20T16:55:30.618Z,19.59
2019-04-20T16:58:01.875Z,19.99
2019-04-20T17:00:33.556Z,20.74
2019-04-20T17:03:05.002Z,21.45
2019-04-20T17:05:37.040Z,21.40
2019-04-20T17:08:08.950Z,21.77
2019-04-20T17:10:41.026Z,21.68
2019-04-20T17:13:13.600Z,23.04
2019-04-20T17:15:45.788Z,22.89
2019-04-20T17:18:17.031Z,22.77
2019-04-20T17:20:48.465Z,23.22
2019-04-20T17:23:19.824Z,24.41
2019-04-20T17:25:52.304Z,24.00
2019-04-20T17:28:38.645Z,24.35
2019-04-20T17:31:43.403Z,25.39
2019-04-20T17:34:36.120Z,25.70
2019-04-20T17:36:50.599Z,26.41
2019-04-20T17:39:31.105Z,26.98
2019-04-20T17:42:12.584Z,28.23
2019-04-20T17:44:44.823Z,28.75
2019-04-20T17:47:24.894Z,30.15
2019-04-20T17:49:57.684Z,31.22
2019-04-20T17:52:36.407Z,31.98
2019-04-20T17:54:49.395Z,32.02
2019-04-20T17:57:21.494Z,33.52
2019-04-20T18:00:02.142Z,35.62
2019-04-20T18:02:58.556Z,35.64
2019-04-20T18:05:51.686Z,37.45
2019-04-20T18:08:26.342Z,35.93
2019-04-20T18:10:52.018Z,37.22
2019-04-20T18:13:18.494Z,38.01
2019-04-20T18:16:04.994Z,36.86
2019-04-20T18:18:49.495Z,38.29
2019-04-20T18:21:28.648Z,38.55
2019-04-20T18:24:00.545Z,36.54
2019-04-20T18:26:54.792Z,38.00
2019-04-20T18:29:26.316Z,38.70
2019-04-20T18:31:45.152Z,37.07
2019-04-20T18:34:34.343Z,36.37
2019-04-20T18:37:10.496Z,37.34
2019-04-20T18:39:43.822Z,38.15
2019-04-20T18:42:18.632Z,35.95
2019-04-20T18:45:05.985Z,36.14
2019-04-20T18:47:39.200Z,36.89
2019-04-20T18:50:04.487Z,38.58
2019-04-20T18:52:25.145Z,39.05
2019-04-20T18:54:57.587Z,40.59
2019-04-20T18:57:31.173Z,40.98
2019-04-20T19:00:02.916Z,40.22
2019-04-20T19:02:41.768Z,40.82
2019-04-20T19:05:11.505Z,41.26
2019-04-20T19:07:52.589Z,41.15
2019-04-20T19:10:24.774Z,39.86
2019-04-20T19:13:00.939Z,40.16
2019-04-20T19:16:00.244Z,41.42
2019-04-20T19:19:00.496Z,41.26
2019-04-20T19:21:21.506Z,41.60
2019-04-20T19:23:59.829Z,41.67
2019-04-20T19:26:27.270Z,42.07
2019-04-20T19:29:11.082Z,41.54
2019-04-20T19:31:46.087Z,40.45
2019-04-20T19:34:26.043Z,41.63
2019-04-20T19:36:47.714Z,41.97
2019-04-20T19:39:26.229Z,40.82
2019-04-20T19:41:52.644Z,41.75
2019-04-20T19:44:27.228Z,39.48
2019-04-20T19:47:11.186Z,42.04
2019-04-20T19:49:34.172Z,42.89
2019-04-20T19:52:25.166Z,43.45
2019-04-20T19:54:50.771Z,44.34
2019-04-20T19:57:24.344Z,42.71
2019-04-20T19:59:41.327Z,42.80
2019-04-20T20:02:11.779Z,42.61
2019-04-20T20:04:49.301Z,40.75
2019-04-20T20:07:25.722Z,42.97
2019-04-20T20:09:56.597Z,43.05
2019-04-20T20:12:23.381Z,43.53
2019-04-20T20:14:57.412Z,43.40
2019-04-20T20:17:48.475Z,43.83
2019-04-20T20:20:25.110Z,43.61
2019-04-20T20:22:41.341Z,43.20
2019-04-20T20:25:09.377Z,43.47
2019-04-20T20:27:49.187Z,43.69
2019-04-20T20:30:22.729Z,45.01
2019-04-20T20:33:04.502Z,44.29
2019-04-20T20:35:23.544Z,44.51
2019-04-20T20:37:57.835Z,44.47
2019-04-20T20:40:34.311Z,44.41
2019-04-20T20:43:10.768Z,42.71
2019-04-20T20:45:39.611Z,42.26
2019-04-20T20:48:28.537Z,42.77
2019-04-20T20:51:00.159Z,43.79
2019-04-20T20:53:23.010Z,43.42
2019-04-20T20:55:53.338Z,41.71
2019-04-20T20:58:33.592Z,44.17
2019-04-20T21:01:03.654Z,44.35
2019-04-20T21:03:34.656Z,40.48
2019-04-20T21:06:00.734Z,42.92
2019-04-20T21:08:36.209Z,44.37
2019-04-20T21:11:13.208Z,42.88
2019-04-20T21:13:43.335Z,43.38
2019-04-20T21:16:17.327Z,42.96
2019-04-20T21:19:00.794Z,42.63
2019-04-20T21:21:33.552Z,43.32
2019-04-20T21:24:00.346Z,43.13
2019-04-20T21:26:35.028Z,42.85
2019-04-20T21:29:01.522Z,43.49
2019-04-20T21:31:34.309Z,44.23
2019-04-20T21:34:09.745Z,43.65
2019-04-20T21:36:38.989Z,43.03
2019-04-20T21:39:20.324Z,43.44
2019-04-20T21:41:49.747Z,43.03
2019-04-20T21:44:25.047Z,42.82
2019-04-20T21:46:54.698Z,43.02
2019-04-20T21:49:38.779Z,43.00
2019-04-20T21:52:03.204Z,42.35
2019-04-20T21:54:31.976Z,42.86
2019-04-20T21:57:07.834Z,42.67
2019-04-20T21:59:43.207Z,42.99
2019-04-20T22:02:18.598Z,43.40
2019-04-20T22:04:43.468Z,43.57
2019-04-20T22:07:16.406Z,43.18
2019-04-20T22:09:51.636Z,43.58
2019-04-20T22:12:21.188Z,42.67
2019-04-20T22:15:00.034Z,43.21
2019-04-20T22:17:30.620Z,42.02
2019-04-20T22:20:12.000Z,42.48
2019-04-20T22:22:50.937Z,42.61
2019-04-20T22:25:28.366Z,42.46
2019-04-20T22:27:40.536Z,43.38
2019-04-20T22:30:14.518Z,43.32
2019-04-20T22:32:48.405Z,43.88
2019-04-20T22:35:19.714Z,42.87
2019-04-20T22:38:06.331Z,41.76
2019-04-20T22:40:33.933Z,43.30
2019-04-20T22:43:06.435Z,42.73
2019-04-20T22:45:41.151Z,42.55
2019-04-20T22:48:14.524Z,41.84
2019-04-20T22:51:03.583Z,40.96
2019-04-20T22:53:31.080Z,43.74
2019-04-20T22:56:16.787Z,42.94
2019-04-20T22:58:38.595Z,43.04
2019-04-20T23:01:04.298Z,43.00
2019-04-20T23:03:30.993Z,43.20
2019-04-20T23:06:02.847Z,42.22
2019-04-20T23:08:35.047Z,42.70
2019-04-20T23:11:14.835Z,43.33
2019-04-20T23:13:43.600Z,42.65
2019-04-20T23:16:13.539Z,42.57
2019-04-20T23:18:44.817Z,42.09
2019-04-20T23:21:17.594Z,41.60
2019-04-20T23:23:53.682Z,41.47
2019-04-20T23:26:28.062Z,41.57
2019-04-20T23:28:58.911Z,40.99
2019-04-20T23:31:29.035Z,41.09
2019-04-20T23:34:09.181Z,41.17
2019-04-20T23:36:40.334Z,40.77
2019-04-20T23:39:10.683Z,41.18
2019-04-20T23:41:51.713Z,41.56
2019-04-20T23:44:23.123Z,41.88
2019-04-20T23:47:08.839Z,41.56
2019-04-20T23:49:54.422Z,41.38
2019-04-20T23:52:35.510Z,41.46
2019-04-20T23:54:51.372Z,41.83
2019-04-20T23:57:17.669Z,41.44
2019-04-20T23:59:50.262Z,41.25
